Airfield :
LOGIN :

Register | Disclaimer

   EN    FR    IT 

 










Legend :    VFR   Marginal VFR   IFR   Intensive IFR   Very Intensive IFR
Visi :
Ceiling :
>= 8 km
>= 3000ft
5 to 8 km
1000 to 3000 ft
1500m to 5 km
500 to 1000 ft
800 to 1500m
200 to 500 ft
< 800m
< 200 ft
Symbols :   Thunderstorms  Fog  Heavy snow  Heavy precipitations  Wind > 20 kt
SIGMETs :     Misc.  Thunderstorms  Icing  Turbulence  Mountain Waves  Volcanic Ashes







- Airport Elevation : 56 ft
- IATA code : BZR
- Download approach charts


LFMU - Beziers / Vias

CURRENT METAR :
  • 232000Z AUTO 01005KT CAVOK 09/07 Q1012

EXPIRED METARs :
  • 231930Z AUTO 36007KT CAVOK 09/08 Q1012 NOSIG
  • 231900Z AUTO 35008KT CAVOK 10/08 Q1012 NOSIG
  • 231830Z AUTO 04006KT 9999 FEW038 OVC160 11/08 Q1011 NOSIG
  • 231800Z AUTO 04006KT 9999 FEW023 BKN034 OVC040 11/08 Q1011 NOSIG
  • 231730Z AUTO 04004KT 9999 SCT032 BKN040 12/09 Q1011 NOSIG
  • 231700Z AUTO 01005KT 9999 OVC032 13/09 Q1010 NOSIG

TAF TAF LFMU
Valid from the 23 at 15:00 until the 24 at 15:00 UTC


231400Z 2315/2415 26008KT 9999 BKN025
BECMG 2405/2408 4000 -RA BKN008
BECMG 2412/2415 14015KT
ATIS : +33 4 67 90 88 88
No reported NOTAMs for that airfield.
1 SIGMET reported for the Marseille FIR (LFMM) :
 
Embedded thunderstorms
LFMM SIGMET 15 VALID 231800/232000 LFPW
LFMM MARSEILLE FIR/UIR EMBD TS FCST WI N4630 E00330 - N4630 E00600 - N4300 E00530 - N4345 E00345 TOP FL320 STNR NC=



MET'MAP, your aeronautical weather chart ! - Copyright ORBIFLY December 2007 - Disclaimer

ORBIFLY MET'MAP TEAM :

Programming & Development : Alexandra Zaïnal
Concept & Development : Baudouin d'Aumeries
Co-Development & Prog : Marc-Olivier Méhu
Technical & hardware support : Manuel Goepfert

Contact : metmap@orbifly.com




SOURCES & CREDITS :

   NOAA